createdAt,value
2019-01-03T00:00:22.428Z,0.57
2019-01-03T00:03:07.441Z,0.59
2019-01-03T00:05:55.889Z,0.61
2019-01-03T00:08:44.018Z,0.61
2019-01-03T00:11:32.165Z,0.62
2019-01-03T00:14:20.325Z,0.55
2019-01-03T00:17:08.736Z,0.52
2019-01-03T00:19:56.881Z,0.47
2019-01-03T00:22:45.295Z,0.42
2019-01-03T00:25:33.985Z,0.39
2019-01-03T00:28:22.538Z,0.44
2019-01-03T00:31:10.990Z,0.45
2019-01-03T00:33:59.143Z,0.44
2019-01-03T00:36:43.346Z,0.47
2019-01-03T00:39:31.747Z,0.52
2019-01-03T00:42:19.937Z,0.43
2019-01-03T00:45:08.366Z,0.53
2019-01-03T00:47:56.827Z,0.74
2019-01-03T00:50:44.947Z,0.84
2019-01-03T00:53:33.463Z,0.88
2019-01-03T00:56:21.591Z,0.90
2019-01-03T00:59:10.029Z,0.88
2019-01-03T01:01:58.480Z,0.89
2019-01-03T01:04:46.933Z,0.95
2019-01-03T01:07:35.213Z,0.98
2019-01-03T01:10:23.775Z,1.05
2019-01-03T01:13:12.192Z,1.13
2019-01-03T01:16:00.338Z,1.14
2019-01-03T01:18:48.603Z,1.24
2019-01-03T01:21:30.089Z,1.25
2019-01-03T01:24:18.239Z,1.21
2019-01-03T01:27:06.356Z,1.19
2019-01-03T01:29:54.804Z,1.32
2019-01-03T01:32:42.943Z,1.37
2019-01-03T01:35:31.648Z,1.40
2019-01-03T01:38:19.779Z,1.37
2019-01-03T01:41:07.978Z,1.35
2019-01-03T01:43:56.121Z,1.41
2019-01-03T01:46:44.289Z,1.45
2019-01-03T01:49:32.469Z,1.48
2019-01-03T01:52:20.854Z,1.47
2019-01-03T01:55:09.298Z,1.64
2019-01-03T01:57:59.465Z,1.59
2019-01-03T02:00:47.912Z,1.64
2019-01-03T02:03:36.296Z,1.65
2019-01-03T02:06:24.483Z,1.72
2019-01-03T02:09:12.606Z,1.70
2019-01-03T02:12:01.405Z,1.73
2019-01-03T02:14:49.836Z,1.67
2019-01-03T02:17:38.262Z,1.70
2019-01-03T02:20:26.396Z,1.65
2019-01-03T02:23:14.869Z,1.71
2019-01-03T02:25:59.916Z,1.65
2019-01-03T02:28:48.098Z,1.74
2019-01-03T02:31:36.529Z,1.74
2019-01-03T02:34:24.896Z,1.68
2019-01-03T02:37:13.604Z,1.70
2019-01-03T02:40:01.726Z,1.80
2019-01-03T02:42:50.556Z,1.82
2019-01-03T02:45:38.979Z,1.80
2019-01-03T02:48:27.396Z,1.73
2019-01-03T02:51:15.511Z,1.73
2019-01-03T02:54:04.269Z,1.76
2019-01-03T02:56:52.406Z,1.80
2019-01-03T02:59:40.829Z,1.70
2019-01-03T03:02:29.230Z,1.80
2019-01-03T03:05:17.372Z,1.83
2019-01-03T03:08:05.794Z,1.71
2019-01-03T03:10:53.913Z,1.71
2019-01-03T03:13:42.101Z,1.71
2019-01-03T03:16:30.238Z,1.70
2019-01-03T03:19:19.098Z,1.75
2019-01-03T03:22:07.236Z,1.75
2019-01-03T03:24:55.662Z,1.96
2019-01-03T03:27:44.066Z,2.11
2019-01-03T03:30:32.243Z,2.06
2019-01-03T03:33:20.396Z,2.06
2019-01-03T03:36:03.351Z,2.08
2019-01-03T03:38:51.501Z,2.09
2019-01-03T03:41:39.923Z,2.16
2019-01-03T03:44:28.062Z,2.21
2019-01-03T03:47:16.188Z,2.30
2019-01-03T03:50:04.616Z,2.31
2019-01-03T03:52:52.754Z,2.28
2019-01-03T03:55:33.828Z,2.35
2019-01-03T03:58:22.215Z,2.39
2019-01-03T04:01:10.393Z,2.40
2019-01-03T04:03:58.871Z,2.44
2019-01-03T04:06:47.358Z,2.41
2019-01-03T04:09:36.055Z,2.45
2019-01-03T04:12:24.211Z,2.37
2019-01-03T04:15:12.646Z,2.37
2019-01-03T04:18:01.358Z,2.39
2019-01-03T04:20:49.492Z,2.31
2019-01-03T04:23:38.185Z,2.35
2019-01-03T04:26:26.725Z,2.33
2019-01-03T04:29:14.843Z,2.34
2019-01-03T04:32:02.206Z,2.34
2019-01-03T04:34:50.329Z,2.28
2019-01-03T04:37:38.474Z,2.28
2019-01-03T04:40:23.204Z,2.33
2019-01-03T04:43:11.653Z,2.34
2019-01-03T04:45:59.787Z,2.38
2019-01-03T04:48:36.690Z,2.40
2019-01-03T04:51:24.841Z,2.41
2019-01-03T04:54:13.270Z,2.41
2019-01-03T04:57:01.807Z,2.38
2019-01-03T04:59:49.921Z,2.39
2019-01-03T05:02:38.089Z,2.38
2019-01-03T05:05:26.650Z,2.43
2019-01-03T05:08:15.376Z,2.47
2019-01-03T05:11:03.499Z,2.49
2019-01-03T05:13:48.398Z,2.47
2019-01-03T05:16:36.799Z,2.44
2019-01-03T05:19:25.228Z,2.57
2019-01-03T05:22:13.374Z,2.57
2019-01-03T05:25:01.793Z,2.55
2019-01-03T05:27:49.898Z,2.56
2019-01-03T05:30:38.652Z,2.44
2019-01-03T05:33:23.442Z,2.51
2019-01-03T05:36:12.138Z,2.50
2019-01-03T05:39:00.297Z,2.56
2019-01-03T05:41:48.478Z,2.58
2019-01-03T05:44:37.008Z,2.57
2019-01-03T05:47:25.433Z,2.54
2019-01-03T05:50:11.248Z,2.52
2019-01-03T05:52:59.699Z,2.50
2019-01-03T05:55:48.118Z,2.54
2019-01-03T05:58:36.259Z,2.45
2019-01-03T06:01:24.421Z,2.56
2019-01-03T06:04:05.313Z,2.57
2019-01-03T06:06:53.502Z,2.52
2019-01-03T06:09:41.924Z,2.49
2019-01-03T06:12:30.049Z,2.50
2019-01-03T06:15:18.501Z,2.47
2019-01-03T06:18:06.658Z,2.54
2019-01-03T06:20:55.081Z,2.45
2019-01-03T06:23:43.220Z,2.58
2019-01-03T06:26:31.366Z,2.60
2019-01-03T06:29:19.907Z,2.56
2019-01-03T06:32:08.082Z,2.59
2019-01-03T06:34:56.504Z,2.62
2019-01-03T06:37:44.954Z,2.57
2019-01-03T06:40:25.390Z,2.59
2019-01-03T06:43:13.841Z,2.62
2019-01-03T06:46:02.000Z,2.61
2019-01-03T06:48:50.133Z,2.62
2019-01-03T06:51:38.844Z,2.59
2019-01-03T06:54:27.274Z,2.66
2019-01-03T06:57:15.435Z,2.63
2019-01-03T06:59:57.519Z,2.65
2019-01-03T07:02:45.663Z,2.68
2019-01-03T07:05:34.152Z,2.71
2019-01-03T07:11:14.809Z,2.69
2019-01-03T08:01:53.184Z,2.75
2019-01-03T08:04:41.661Z,2.76
2019-01-03T08:07:30.105Z,2.78
2019-01-03T09:23:59.171Z,3.44
2019-01-03T09:26:47.630Z,3.54
2019-01-03T09:29:31.180Z,3.59
2019-01-03T09:32:19.640Z,3.65
2019-01-03T09:35:07.754Z,3.71
2019-01-03T09:55:33.686Z,3.92
2019-01-03T09:58:03.249Z,3.92
2019-01-03T10:00:32.692Z,3.97
2019-01-03T10:03:01.897Z,4.03
2019-01-03T10:05:31.132Z,4.08
2019-01-03T10:08:00.349Z,4.13
2019-01-03T10:13:05.202Z,4.24
2019-01-03T10:15:34.544Z,4.33
2019-01-03T10:18:04.163Z,4.33
2019-01-03T10:20:33.841Z,4.36
2019-01-03T10:23:03.429Z,4.38
2019-01-03T10:25:32.684Z,4.37
2019-01-03T10:28:02.211Z,4.30
2019-01-03T10:30:32.005Z,4.26
2019-01-03T10:33:01.194Z,4.28
2019-01-03T10:35:31.047Z,4.19
2019-01-03T10:38:00.817Z,4.18
2019-01-03T10:40:30.041Z,4.27
2019-01-03T10:42:59.252Z,4.48
2019-01-03T10:45:29.136Z,4.68
2019-01-03T10:47:59.413Z,4.88
2019-01-03T10:50:29.586Z,5.13
2019-01-03T10:52:59.052Z,4.98
2019-01-03T10:55:28.269Z,5.02
2019-01-03T10:57:57.766Z,5.06
2019-01-03T11:00:27.453Z,4.80
2019-01-03T11:02:56.924Z,4.70
2019-01-03T11:05:26.494Z,4.61
2019-01-03T11:07:55.983Z,4.48
2019-01-03T11:10:25.176Z,4.28
2019-01-03T11:12:54.660Z,4.17
2019-01-03T11:15:23.881Z,3.98
2019-01-03T11:17:53.387Z,3.92
2019-01-03T11:20:22.858Z,3.80
2019-01-03T11:22:52.371Z,3.86
2019-01-03T11:25:21.852Z,3.84
2019-01-03T11:27:51.352Z,3.90
2019-01-03T11:30:21.283Z,3.92
2019-01-03T11:32:50.771Z,3.93
2019-01-03T11:35:20.249Z,4.01
2019-01-03T11:37:50.228Z,4.10
2019-01-03T11:40:19.693Z,4.16
2019-01-03T11:42:48.940Z,4.11
2019-01-03T11:45:18.388Z,4.06
2019-01-03T11:47:47.919Z,4.18
2019-01-03T11:50:17.125Z,4.22
2019-01-03T11:52:46.332Z,4.27
2019-01-03T11:55:16.217Z,4.31
2019-01-03T11:57:45.711Z,4.43
2019-01-03T12:00:15.191Z,4.44
2019-01-03T12:02:44.415Z,4.42
2019-01-03T12:05:13.890Z,4.52
2019-01-03T12:07:43.114Z,4.54
2019-01-03T12:10:12.918Z,4.57
2019-01-03T12:12:42.136Z,4.63
2019-01-03T12:15:11.317Z,4.71
2019-01-03T12:17:59.870Z,4.71
2019-01-03T12:20:29.910Z,4.78
2019-01-03T12:22:59.528Z,4.83
2019-01-03T12:25:29.024Z,4.93
2019-01-03T12:27:58.221Z,4.96
2019-01-03T12:30:27.717Z,5.05
2019-01-03T12:32:57.194Z,4.98
2019-01-03T12:35:26.433Z,4.98
2019-01-03T12:37:55.791Z,4.97
2019-01-03T12:40:25.245Z,4.93
2019-01-03T12:42:54.465Z,4.90
2019-01-03T12:45:24.286Z,4.79
2019-01-03T12:47:54.171Z,4.83
2019-01-03T12:50:23.682Z,4.85
2019-01-03T12:52:53.127Z,4.79
2019-01-03T12:55:22.633Z,4.75
2019-01-03T12:57:52.097Z,4.82
2019-01-03T13:00:40.382Z,4.86
2019-01-03T13:03:09.862Z,4.83
2019-01-03T13:05:39.326Z,4.76
2019-01-03T13:08:09.443Z,4.81
2019-01-03T13:10:38.921Z,4.77
2019-01-03T13:13:08.552Z,4.81
2019-01-03T13:15:56.842Z,4.81
2019-01-03T13:18:26.591Z,4.87
2019-01-03T13:20:56.078Z,4.92
2019-01-03T13:23:25.310Z,4.93
2019-01-03T13:25:54.859Z,4.91
2019-01-03T13:28:24.332Z,4.91
2019-01-03T13:30:54.168Z,4.83
2019-01-03T13:33:24.032Z,4.86
2019-01-03T13:35:53.553Z,4.86
2019-01-03T13:38:22.752Z,4.87
2019-01-03T13:40:52.130Z,4.82
2019-01-03T13:43:21.642Z,4.81
2019-01-03T13:45:50.848Z,4.80
2019-01-03T13:48:20.341Z,4.82
2019-01-03T13:50:49.812Z,4.73
2019-01-03T13:53:19.785Z,4.72
2019-01-03T13:55:49.285Z,4.77
2019-01-03T13:58:18.758Z,4.77
2019-01-03T14:00:48.681Z,4.67
2019-01-03T14:03:18.166Z,4.64
2019-01-03T14:05:47.658Z,4.69
2019-01-03T14:08:17.737Z,4.64
2019-01-03T14:10:47.222Z,4.70
2019-01-03T14:13:16.696Z,4.68
2019-01-03T14:15:46.546Z,4.69
2019-01-03T14:18:16.519Z,4.68
2019-01-03T14:20:46.327Z,4.63
2019-01-03T14:23:15.817Z,4.64
2019-01-03T14:25:45.279Z,4.59
2019-01-03T14:28:14.744Z,4.57
2019-01-03T14:30:44.219Z,4.51
2019-01-03T14:33:13.424Z,4.57
2019-01-03T14:35:42.887Z,4.56
2019-01-03T14:38:12.095Z,4.58
2019-01-03T14:40:41.287Z,4.59
2019-01-03T14:43:10.668Z,4.59
2019-01-03T14:45:40.139Z,4.59
2019-01-03T14:48:09.885Z,4.59
2019-01-03T14:50:39.354Z,4.61
2019-01-03T14:53:09.372Z,4.59
2019-01-03T14:55:38.961Z,4.62
2019-01-03T14:58:09.302Z,4.62
2019-01-03T15:00:39.110Z,4.62
2019-01-03T15:03:27.328Z,4.64
2019-01-03T15:05:56.883Z,4.59
2019-01-03T15:08:26.384Z,4.64
2019-01-03T15:10:55.867Z,4.64
2019-01-03T15:13:25.410Z,4.61
2019-01-03T15:15:54.641Z,4.62
2019-01-03T15:18:24.094Z,4.55
2019-01-03T15:20:53.591Z,4.57
2019-01-03T15:23:23.052Z,4.57
2019-01-03T15:25:52.573Z,4.58
2019-01-03T15:28:22.017Z,4.53
2019-01-03T15:30:51.264Z,4.54
2019-01-03T15:33:21.016Z,4.52
2019-01-03T15:35:50.372Z,4.53
2019-01-03T15:38:19.564Z,4.45
2019-01-03T15:40:49.119Z,4.43
2019-01-03T15:43:18.938Z,4.45
2019-01-03T15:45:48.433Z,4.40
2019-01-03T15:48:22.828Z,4.42
2019-01-03T15:50:52.323Z,4.40
2019-01-03T15:53:22.050Z,4.43
2019-01-03T15:55:51.266Z,4.43
2019-01-03T15:58:21.544Z,4.40
2019-01-03T16:00:50.764Z,4.43
2019-01-03T16:03:19.958Z,4.41
2019-01-03T16:05:49.165Z,4.42
2019-01-03T16:08:18.612Z,4.43
2019-01-03T16:10:47.876Z,4.46
2019-01-03T16:13:17.323Z,4.44
2019-01-03T16:15:46.896Z,4.40
2019-01-03T16:18:16.409Z,4.42
2019-01-03T16:20:45.916Z,4.42
2019-01-03T16:23:15.101Z,4.40
2019-01-03T16:25:44.584Z,4.42
2019-01-03T16:30:49.039Z,4.44
2019-01-03T16:33:18.259Z,4.45
2019-01-03T16:35:48.267Z,4.44
2019-01-03T16:38:18.375Z,4.44
2019-01-03T16:40:47.568Z,4.41
2019-01-03T16:43:17.111Z,4.40
2019-01-03T16:45:46.324Z,4.43
2019-01-03T16:48:15.544Z,4.43
2019-01-03T16:50:44.740Z,4.43
2019-01-03T16:53:14.242Z,4.40
2019-01-03T16:55:43.452Z,4.43
2019-01-03T16:58:12.918Z,4.44
2019-01-03T17:00:42.116Z,4.42
2019-01-03T17:03:11.701Z,4.43
2019-01-03T17:05:41.162Z,4.42
2019-01-03T17:08:10.638Z,4.40
2019-01-03T17:10:40.098Z,4.37
2019-01-03T17:13:09.585Z,4.41
2019-01-03T17:15:39.423Z,4.39
2019-01-03T17:18:09.337Z,4.38
2019-01-03T17:20:38.557Z,4.43
2019-01-03T17:23:07.810Z,4.42
2019-01-03T17:25:37.027Z,4.41
2019-01-03T17:28:06.251Z,4.39
2019-01-03T17:30:36.024Z,4.41
2019-01-03T17:33:05.849Z,4.43
2019-01-03T17:35:35.327Z,4.40
2019-01-03T17:38:05.102Z,4.42
2019-01-03T17:40:34.627Z,4.36
2019-01-03T17:43:03.869Z,4.37
2019-01-03T17:45:33.404Z,4.44
2019-01-03T17:48:02.880Z,4.34
2019-01-03T17:50:36.310Z,4.40
2019-01-03T17:53:03.600Z,4.40
2019-01-03T17:55:32.930Z,4.43
2019-01-03T17:58:10.450Z,4.42
2019-01-03T18:00:41.343Z,4.39
2019-01-03T18:03:11.598Z,4.40
2019-01-03T18:05:41.089Z,4.36
2019-01-03T18:08:10.620Z,4.39
2019-01-03T18:10:39.987Z,4.36
2019-01-03T18:13:09.452Z,4.39
2019-01-03T18:15:39.088Z,4.36
2019-01-03T18:18:08.956Z,4.39
2019-01-03T18:20:38.174Z,4.37
2019-01-03T18:23:07.626Z,4.37
2019-01-03T18:25:36.926Z,4.40
2019-01-03T18:28:06.696Z,4.42
2019-01-03T18:30:36.226Z,4.38
2019-01-03T18:33:05.686Z,4.36
2019-01-03T18:35:35.180Z,4.38
2019-01-03T18:38:04.766Z,4.39
2019-01-03T18:40:34.291Z,4.35
2019-01-03T18:43:03.797Z,4.32
2019-01-03T18:45:33.574Z,4.27
2019-01-03T18:48:03.086Z,4.27
2019-01-03T18:50:32.383Z,4.26
2019-01-03T18:53:01.607Z,4.28
2019-01-03T18:55:30.842Z,4.28
2019-01-03T18:58:00.706Z,4.29
2019-01-03T19:00:30.188Z,4.27
2019-01-03T19:03:00.100Z,4.27
2019-01-03T19:05:29.339Z,4.26
2019-01-03T19:07:59.226Z,4.29
2019-01-03T19:10:28.561Z,4.27
2019-01-03T19:12:57.852Z,4.25
2019-01-03T19:15:27.298Z,4.24
2019-01-03T19:17:56.888Z,4.25
2019-01-03T19:20:26.360Z,4.24
2019-01-03T19:22:55.881Z,4.32
2019-01-03T19:25:25.076Z,4.30
2019-01-03T19:27:54.307Z,4.29
2019-01-03T19:30:23.510Z,4.32
2019-01-03T19:32:52.730Z,4.33
2019-01-03T19:35:21.991Z,4.29
2019-01-03T19:37:51.227Z,4.32
2019-01-03T19:40:20.424Z,4.28
2019-01-03T19:42:50.279Z,4.29
2019-01-03T19:45:19.454Z,4.24
2019-01-03T19:47:48.668Z,4.29
2019-01-03T19:50:20.071Z,4.29
2019-01-03T19:52:49.856Z,4.25
2019-01-03T19:55:19.116Z,4.29
2019-01-03T19:57:48.343Z,4.26
2019-01-03T20:00:17.569Z,4.25
2019-01-03T20:02:46.764Z,4.23
2019-01-03T20:05:15.971Z,4.21
2019-01-03T20:07:46.032Z,4.20
2019-01-03T20:10:15.650Z,4.20
2019-01-03T20:12:44.860Z,4.18
2019-01-03T20:15:14.530Z,4.15
2019-01-03T20:17:43.736Z,4.13
2019-01-03T20:20:13.193Z,4.14
2019-01-03T20:22:42.395Z,4.08
2019-01-03T20:25:12.563Z,4.08
2019-01-03T20:28:00.979Z,4.10
2019-01-03T20:30:30.200Z,4.11
2019-01-03T20:32:59.725Z,4.09
2019-01-03T20:35:29.002Z,4.11
2019-01-03T20:37:58.187Z,4.09
2019-01-03T20:40:27.497Z,4.11
2019-01-03T20:42:56.725Z,4.07
2019-01-03T20:45:25.947Z,4.09
2019-01-03T20:47:55.136Z,4.12
2019-01-03T20:50:24.349Z,4.12
2019-01-03T20:52:53.907Z,4.10
2019-01-03T20:55:23.410Z,4.09
2019-01-03T20:57:52.618Z,4.06
2019-01-03T21:00:22.123Z,4.10
2019-01-03T21:02:51.338Z,4.07
2019-01-03T21:05:21.061Z,4.00
2019-01-03T21:07:50.364Z,4.00
2019-01-03T21:10:19.642Z,3.97
2019-01-03T21:12:48.858Z,4.01
2019-01-03T21:15:19.872Z,4.07
2019-01-03T21:17:49.098Z,4.07
2019-01-03T21:20:18.684Z,4.07
2019-01-03T21:22:47.907Z,4.11
2019-01-03T21:25:17.655Z,4.08
2019-01-03T21:27:47.166Z,4.09
2019-01-03T21:30:18.567Z,4.07
2019-01-03T21:32:47.866Z,4.12
2019-01-03T21:35:17.061Z,4.13
2019-01-03T21:37:46.265Z,4.16
2019-01-03T21:40:15.560Z,4.14
2019-01-03T21:42:44.837Z,4.07
2019-01-03T21:45:14.092Z,4.13
2019-01-03T21:47:43.322Z,4.09
2019-01-03T21:53:21.844Z,4.06
2019-01-03T21:55:51.062Z,4.03
2019-01-03T21:58:20.285Z,4.06
2019-01-03T22:00:49.821Z,4.07
2019-01-03T22:03:19.028Z,4.06
2019-01-03T22:05:48.481Z,4.09
2019-01-03T22:08:17.690Z,4.04
2019-01-03T22:10:46.877Z,4.08
2019-01-03T22:13:16.227Z,4.16
2019-01-03T22:15:45.485Z,4.09
2019-01-03T22:18:14.993Z,4.11
2019-01-03T22:20:44.238Z,4.10
2019-01-03T22:23:13.481Z,4.02
2019-01-03T22:25:42.671Z,4.06
2019-01-03T22:28:11.878Z,4.15
2019-01-03T22:30:41.089Z,4.12
2019-01-03T22:33:10.603Z,4.10
2019-01-03T22:35:40.082Z,4.11
2019-01-03T22:38:09.275Z,4.10
2019-01-03T22:40:38.775Z,4.07
2019-01-03T22:43:08.037Z,4.03
2019-01-03T22:45:37.243Z,4.03
2019-01-03T22:48:06.425Z,4.04
2019-01-03T22:50:35.649Z,4.01
2019-01-03T22:53:05.129Z,4.01
2019-01-03T22:55:34.635Z,4.03
2019-01-03T22:58:04.163Z,3.96
2019-01-03T23:01:16.901Z,3.95
2019-01-03T23:03:46.103Z,3.86
2019-01-03T23:06:15.323Z,3.96
2019-01-03T23:08:44.519Z,3.92
2019-01-03T23:11:14.098Z,3.94
2019-01-03T23:13:43.284Z,4.08
2019-01-03T23:16:12.626Z,4.08
2019-01-03T23:18:41.811Z,4.06
2019-01-03T23:21:11.113Z,4.06
2019-01-03T23:23:40.638Z,3.98
2019-01-03T23:26:09.895Z,4.03
2019-01-03T23:28:39.422Z,3.98
2019-01-03T23:31:08.653Z,4.01
2019-01-03T23:33:37.868Z,4.05
2019-01-03T23:36:07.120Z,4.03
2019-01-03T23:38:37.151Z,4.04
2019-01-03T23:41:06.381Z,3.97
2019-01-03T23:46:12.662Z,4.02
2019-01-03T23:48:41.854Z,3.93
2019-01-03T23:51:15.046Z,3.94
2019-01-03T23:53:44.274Z,3.95
2019-01-03T23:56:13.510Z,3.88
2019-01-03T23:58:43.001Z,3.84
